Time;durP1;ratioP1;P1;durP2;ratioP2;P2;SDS_P1;SDS_P2;PMS_P1;PMS_P2;Temp;Humidity;BMP_temperature;BMP_pressure;BME280_temperature;BME280_humidity;BME280_pressure;Samples;Min_cycle;Max_cycle;Signal;HPM_P1;HPM_P2
2023/01/08 00:01:10;;;;;;;27.25;3.65;;;;;;;6.20;100.00;97489.03;5048298;28;20485;-81
2023/01/08 00:03:37;;;;;;;22.75;3.42;;;;;;;6.16;100.00;97492.22;5064808;28;20139;-81
2023/01/08 00:06:05;;;;;;;25.60;3.28;;;;;;;6.16;100.00;97489.59;5063263;28;20047;-81
2023/01/08 00:08:32;;;;;;;20.45;3.70;;;;;;;6.15;100.00;97494.03;5062001;28;20115;-81
2023/01/08 00:11:00;;;;;;;24.02;3.20;;;;;;;6.15;100.00;97490.59;5049188;28;20523;-80
2023/01/08 00:13:26;;;;;;;14.73;2.50;;;;;;;6.18;100.00;97492.88;5066606;28;20056;-81
2023/01/08 00:15:52;;;;;;;15.85;3.45;;;;;;;6.17;100.00;97486.78;5065251;28;20024;-81
2023/01/08 00:18:19;;;;;;;14.80;3.35;;;;;;;6.20;100.00;97494.28;5066775;28;20429;-81
2023/01/08 00:20:45;;;;;;;20.65;3.53;;;;;;;6.22;100.00;97494.09;5064869;28;20496;-81
2023/01/08 00:23:16;;;;;;;18.02;3.55;;;;;;;6.25;100.00;97503.38;5072845;28;20127;-81
2023/01/08 00:25:42;;;;;;;18.95;2.70;;;;;;;6.26;100.00;97502.41;5067276;28;20036;-81
2023/01/08 00:28:08;;;;;;;17.98;2.85;;;;;;;6.27;100.00;97501.41;5047633;28;20028;-80
2023/01/08 00:30:35;;;;;;;18.20;2.88;;;;;;;6.29;100.00;97515.94;5061135;28;20087;-81
2023/01/08 00:33:01;;;;;;;21.55;3.15;;;;;;;6.28;100.00;97505.63;5050853;28;20032;-81
2023/01/08 00:35:27;;;;;;;24.58;3.75;;;;;;;6.29;100.00;97494.94;5051766;28;20033;-81
2023/01/08 00:37:54;;;;;;;25.02;4.07;;;;;;;6.26;100.00;97476.97;5079817;28;20040;-81
2023/01/08 00:40:20;;;;;;;19.50;3.95;;;;;;;6.24;100.00;97486.84;5048446;28;20507;-81
2023/01/08 00:42:46;;;;;;;23.55;4.22;;;;;;;6.24;100.00;97484.25;5067604;28;20044;-81
2023/01/08 00:45:12;;;;;;;30.77;4.50;;;;;;;6.20;100.00;97496.09;5066787;28;20024;-81
2023/01/08 00:47:38;;;;;;;26.60;3.42;;;;;;;6.13;100.00;97482.91;5048212;28;20060;-81
2023/01/08 00:50:04;;;;;;;20.75;3.75;;;;;;;6.12;100.00;97489.16;5037547;28;20560;-81
2023/01/08 00:52:30;;;;;;;24.02;3.95;;;;;;;6.07;100.00;97487.13;5067588;28;20032;-81
2023/01/08 00:54:56;;;;;;;31.13;4.72;;;;;;;6.03;100.00;97492.91;5060902;28;20052;-81
2023/01/08 00:57:22;;;;;;;23.17;3.90;;;;;;;5.99;100.00;97495.06;5069205;28;20043;-81
2023/01/08 00:59:48;;;;;;;23.77;4.38;;;;;;;5.96;100.00;97500.69;5061179;28;20080;-81
2023/01/08 01:02:14;;;;;;;26.73;5.13;;;;;;;5.93;100.00;97491.41;5062176;28;20067;-81
2023/01/08 01:04:43;;;;;;;23.15;3.60;;;;;;;5.94;100.00;97497.47;5057172;28;20568;-81
2023/01/08 01:07:09;;;;;;;25.20;3.67;;;;;;;5.91;100.00;97493.38;5070431;28;20044;-81
2023/01/08 01:09:36;;;;;;;31.17;4.90;;;;;;;5.90;100.00;97490.97;5083705;28;20082;-81
2023/01/08 01:12:02;;;;;;;25.98;4.65;;;;;;;5.89;100.00;97484.88;5046206;28;20055;-80
2023/01/08 01:14:28;;;;;;;34.97;4.72;;;;;;;5.91;100.00;97482.13;5064458;28;20032;-81
2023/01/08 01:16:54;;;;;;;33.50;4.70;;;;;;;5.91;100.00;97479.50;5065242;28;20032;-81
2023/01/08 01:19:19;;;;;;;23.20;4.93;;;;;;;5.92;100.00;97466.19;5066509;28;20029;-81
2023/01/08 01:21:45;;;;;;;29.10;4.35;;;;;;;5.89;100.00;97477.03;5059233;28;20037;-81
2023/01/08 01:24:12;;;;;;;23.13;4.30;;;;;;;5.92;100.00;97460.13;5071877;28;20509;-82
2023/01/08 01:26:38;;;;;;;29.52;4.50;;;;;;;5.92;100.00;97470.63;5065634;28;20359;-82
2023/01/08 01:29:04;;;;;;;25.92;4.57;;;;;;;5.88;100.00;97464.94;5066766;28;20043;-81
2023/01/08 01:31:31;;;;;;;29.50;4.65;;;;;;;5.85;100.00;97465.31;5049474;28;20078;-81
2023/01/08 01:33:57;;;;;;;26.63;4.20;;;;;;;5.85;100.00;97465.31;5059574;28;20029;-82
2023/01/08 01:36:24;;;;;;;28.05;4.57;;;;;;;5.83;100.00;97468.13;5042410;28;20556;-81
2023/01/08 01:38:53;;;;;;;33.10;4.60;;;;;;;5.80;100.00;97463.25;5080524;28;20028;-81
2023/01/08 01:41:27;;;;;;;28.40;4.07;;;;;;;5.82;100.00;97450.78;5064007;28;20028;-82
2023/01/08 01:43:55;;;;;;;30.08;4.68;;;;;;;5.74;100.00;97448.28;5047458;28;20071;-82
2023/01/08 01:46:36;;;;;;;26.58;5.13;;;;;;;5.71;100.00;97453.88;5078575;28;20393;-81
2023/01/08 01:49:08;;;;;;;21.33;3.83;;;;;;;5.65;100.00;97454.63;5066008;28;20388;-82
2023/01/08 01:51:35;;;;;;;36.33;5.18;;;;;;;5.60;100.00;97455.19;5047176;28;20128;-82
2023/01/08 01:54:04;;;;;;;38.60;5.60;;;;;;;5.53;100.00;97449.88;5065657;28;20040;-82
2023/01/08 01:56:31;;;;;;;39.17;6.57;;;;;;;5.49;100.00;97443.41;5073922;28;20040;-79
2023/01/08 01:58:57;;;;;;;32.60;4.88;;;;;;;5.45;100.00;97444.75;5061431;28;20473;-83
2023/01/08 02:01:25;;;;;;;29.95;5.70;;;;;;;5.45;100.00;97439.53;5060513;28;20045;-83
2023/01/08 02:03:50;;;;;;;31.65;4.65;;;;;;;5.41;100.00;97443.53;5037782;28;20117;-84
2023/01/08 02:06:38;;;;;;;34.17;4.90;;;;;;;5.41;100.00;97441.72;5065801;28;20028;-83
2023/01/08 02:09:19;;;;;;;34.33;5.25;;;;;;;5.38;100.00;97436.84;5080521;28;20116;-82
2023/01/08 02:12:15;;;;;;;25.63;4.20;;;;;;;5.37;100.00;97426.56;5062496;28;20407;-82
2023/01/08 02:14:59;;;;;;;30.45;4.28;;;;;;;5.37;100.00;97442.28;5059462;28;20067;-82
2023/01/08 02:17:37;;;;;;;34.20;5.88;;;;;;;5.36;100.00;97435.41;5044253;28;20075;-82
2023/01/08 02:20:10;;;;;;;36.75;5.72;;;;;;;5.34;100.00;97438.19;5063238;28;20032;-82
2023/01/08 02:23:10;;;;;;;21.35;4.10;;;;;;;5.30;100.00;97436.97;5067348;28;20036;-82
2023/01/08 02:25:42;;;;;;;34.78;4.63;;;;;;;5.31;100.00;97447.25;5023117;28;20135;-82
2023/01/08 02:28:12;;;;;;;31.13;5.38;;;;;;;5.30;100.00;97437.75;5084150;28;20107;-82
2023/01/08 02:30:40;;;;;;;34.08;5.28;;;;;;;5.28;100.00;97442.38;5055129;28;20024;-83
2023/01/08 02:33:05;;;;;;;21.35;4.43;;;;;;;5.26;100.00;97446.97;5051079;28;20040;-82
2023/01/08 02:35:43;;;;;;;24.30;4.30;;;;;;;5.29;100.00;97444.00;5053780;28;20036;-83
2023/01/08 02:38:14;;;;;;;41.78;6.10;;;;;;;5.27;100.00;97445.19;5066085;28;20514;-81
2023/01/08 02:40:53;;;;;;;35.83;6.00;;;;;;;5.31;100.00;97442.00;5071451;28;20029;-80
2023/01/08 02:43:32;;;;;;;35.88;6.05;;;;;;;5.31;100.00;97436.78;5054032;28;20067;-83
2023/01/08 02:46:01;;;;;;;23.83;3.97;;;;;;;5.29;100.00;97436.13;5071137;28;20028;-82
2023/01/08 02:48:47;;;;;;;25.73;4.63;;;;;;;5.25;100.00;97429.66;5069924;28;20040;-82
2023/01/08 02:51:16;;;;;;;24.38;4.30;;;;;;;5.16;100.00;97430.78;5068451;28;20108;-83
2023/01/08 02:53:49;;;;;;;26.67;5.88;;;;;;;5.12;100.00;97425.09;5068476;28;20040;-83
2023/01/08 02:56:23;;;;;;;30.35;5.05;;;;;;;5.09;100.00;97420.22;5069468;28;20036;-82
2023/01/08 02:58:51;;;;;;;37.00;5.32;;;;;;;5.03;100.00;97436.66;5082381;28;20121;-82
2023/01/08 03:01:21;;;;;;;19.88;3.97;;;;;;;4.99;100.00;97428.34;5054730;28;20392;-82
2023/01/08 03:03:55;;;;;;;27.73;5.13;;;;;;;4.96;100.00;97416.44;5038124;28;20044;-82
2023/01/08 03:06:21;;;;;;;27.80;4.20;;;;;;;4.90;100.00;97421.59;5068123;28;20095;-83
2023/01/08 03:08:50;;;;;;;34.47;6.32;;;;;;;4.89;100.00;97417.38;5069050;28;20032;-80
2023/01/08 03:11:21;;;;;;;35.70;4.95;;;;;;;4.82;100.00;97410.25;5070222;28;20121;-83
2023/01/08 03:13:50;;;;;;;28.65;4.63;;;;;;;4.71;100.00;97406.25;5065670;28;20040;-81
2023/01/08 03:16:28;;;;;;;23.90;4.78;;;;;;;4.70;100.00;97412.50;5065521;28;20064;-82
2023/01/08 03:19:06;;;;;;;30.33;4.13;;;;;;;4.65;100.00;97414.06;5081048;28;20043;-82
2023/01/08 03:21:34;;;;;;;27.80;3.83;;;;;;;4.62;100.00;97411.81;5082080;28;20123;-81
2023/01/08 03:24:01;;;;;;;25.45;4.43;;;;;;;4.61;100.00;97410.97;5070190;28;20024;-82
2023/01/08 03:26:29;;;;;;;26.85;4.05;;;;;;;4.58;100.00;97404.31;5054705;28;20071;-82
2023/01/08 03:28:56;;;;;;;33.40;4.63;;;;;;;4.59;100.00;97411.16;5072273;28;20111;-82
2023/01/08 03:31:26;;;;;;;30.15;4.80;;;;;;;4.60;100.00;97396.28;5032572;28;20040;-82
2023/01/08 03:33:53;;;;;;;26.60;3.83;;;;;;;4.59;100.00;97379.75;5044093;28;20036;-82
2023/01/08 03:36:26;;;;;;;30.55;4.18;;;;;;;4.58;100.00;97383.38;5070587;28;20032;-82
2023/01/08 03:38:59;;;;;;;24.92;4.80;;;;;;;4.58;100.00;97390.41;5053109;28;20107;-82
2023/01/08 03:41:29;;;;;;;25.48;4.95;;;;;;;4.55;100.00;97386.38;5062796;28;20485;-82
2023/01/08 03:43:56;;;;;;;28.42;3.85;;;;;;;4.53;100.00;97396.19;5071280;28;20484;-82
2023/01/08 03:46:29;;;;;;;32.15;4.75;;;;;;;4.58;100.00;97393.84;5065153;28;20146;-82
2023/01/08 03:48:57;;;;;;;35.53;4.40;;;;;;;4.61;100.00;97402.31;5030662;28;20037;-83
2023/01/08 03:51:23;;;;;;;32.20;4.90;;;;;;;4.59;100.00;97398.06;5065605;28;20048;-83
2023/01/08 03:53:52;;;;;;;34.63;4.88;;;;;;;4.66;100.00;97407.81;5085753;28;20028;-83
2023/01/08 03:56:18;;;;;;;26.08;3.38;;;;;;;4.66;100.00;97407.81;5069137;28;20032;-82
2023/01/08 03:58:44;;;;;;;33.22;5.22;;;;;;;4.70;100.00;97417.72;5066638;28;20032;-82
2023/01/08 04:01:10;;;;;;;25.92;5.38;;;;;;;4.74;100.00;97405.09;5054303;28;20468;-82
2023/01/08 04:03:35;;;;;;;25.90;4.53;;;;;;;4.81;100.00;97405.19;5069362;28;20036;-82
2023/01/08 04:06:01;;;;;;;29.95;4.80;;;;;;;4.82;100.00;97405.00;5054437;28;20116;-83
2023/01/08 04:08:28;;;;;;;27.13;4.63;;;;;;;4.88;100.00;97400.03;5084178;28;20039;-82
2023/01/08 04:10:53;;;;;;;26.83;4.20;;;;;;;4.93;100.00;97388.03;5070381;28;20044;-81
2023/01/08 04:13:19;;;;;;;48.35;5.10;;;;;;;4.98;100.00;97403.19;5071060;28;20085;-82
2023/01/08 04:15:50;;;;;;;34.05;6.10;;;;;;;5.04;100.00;97404.25;5086902;28;20597;-82
2023/01/08 04:18:18;;;;;;;28.52;5.68;;;;;;;5.05;100.00;97406.66;5062192;28;20089;-82
2023/01/08 04:20:46;;;;;;;33.17;5.00;;;;;;;5.11;100.00;97399.91;5066412;28;20040;-83
2023/01/08 04:23:12;;;;;;;28.10;4.13;;;;;;;5.14;100.00;97403.94;5068509;28;20089;-81
2023/01/08 04:25:38;;;;;;;34.45;5.95;;;;;;;5.17;100.00;97404.41;5057173;28;20034;-79
2023/01/08 04:28:06;;;;;;;34.28;5.40;;;;;;;5.21;100.00;97410.06;5052629;28;20036;-79
2023/01/08 04:30:32;;;;;;;29.98;4.88;;;;;;;5.21;100.00;97397.78;5052977;28;20032;-80
2023/01/08 04:32:58;;;;;;;37.60;4.93;;;;;;;5.21;100.00;97397.78;5053733;28;20553;-81
2023/01/08 04:35:23;;;;;;;33.75;4.75;;;;;;;5.25;100.00;97400.84;5069426;28;20401;-79
2023/01/08 04:37:49;;;;;;;38.13;5.90;;;;;;;5.21;100.00;97397.78;5053288;28;20040;-79
2023/01/08 04:40:15;;;;;;;32.92;5.25;;;;;;;5.22;100.00;97386.31;5068528;28;20090;-81
2023/01/08 04:42:41;;;;;;;31.48;4.72;;;;;;;5.19;100.00;97378.81;5069553;28;20036;-82
2023/01/08 04:45:08;;;;;;;9.82;2.30;;;;;;;5.09;100.00;97378.31;5065229;28;20073;-83
2023/01/08 04:47:34;;;;;;;17.25;2.05;;;;;;;4.93;100.00;97380.19;5069148;28;20058;-82
2023/01/08 04:50:01;;;;;;;12.38;2.13;;;;;;;4.83;100.00;97390.94;5081370;28;20138;-80
2023/01/08 04:52:28;;;;;;;7.10;1.25;;;;;;;4.71;100.00;97400.25;5052234;28;20044;-80
2023/01/08 04:54:53;;;;;;;10.80;1.88;;;;;;;4.54;100.00;97428.41;5068713;28;20392;-81
2023/01/08 04:57:19;;;;;;;5.18;1.15;;;;;;;4.32;100.00;97404.75;5069556;28;20028;-81
2023/01/08 04:59:45;;;;;;;12.15;2.47;;;;;;;4.13;100.00;97403.47;5065175;28;20056;-81
2023/01/08 05:02:11;;;;;;;7.80;1.33;;;;;;;4.02;100.00;97395.06;5069803;28;20041;-81
2023/01/08 05:04:37;;;;;;;10.75;1.23;;;;;;;3.98;100.00;97385.97;5066790;28;20095;-83
2023/01/08 05:07:03;;;;;;;10.25;1.17;;;;;;;3.97;100.00;97377.31;5052690;28;20496;-83
2023/01/08 05:09:29;;;;;;;5.97;1.42;;;;;;;3.93;100.00;97363.00;5064467;28;20039;-81
2023/01/08 05:11:55;;;;;;;6.63;0.90;;;;;;;3.95;100.00;97365.44;5045181;28;20058;-81
2023/01/08 05:14:21;;;;;;;6.25;0.80;;;;;;;3.92;100.00;97356.13;5050632;28;20028;-81
2023/01/08 05:16:47;;;;;;;6.15;0.90;;;;;;;3.92;100.00;97361.34;5070246;28;20082;-81
2023/01/08 05:19:12;;;;;;;4.18;0.80;;;;;;;3.89;100.00;97360.88;5050421;28;20025;-81
2023/01/08 05:21:38;;;;;;;2.65;0.45;;;;;;;3.85;100.00;97355.22;5085178;28;20040;-81
2023/01/08 05:24:05;;;;;;;3.08;0.70;;;;;;;3.85;100.00;97342.16;5069911;28;20066;-81
2023/01/08 05:26:31;;;;;;;2.55;0.40;;;;;;;3.85;100.00;97336.94;5065763;28;20025;-81
2023/01/08 05:28:57;;;;;;;2.83;0.40;;;;;;;3.87;100.00;97331.53;5045579;28;20078;-83
2023/01/08 05:31:23;;;;;;;3.10;0.40;;;;;;;3.85;100.00;97327.28;5034940;28;20033;-81
2023/01/08 05:33:50;;;;;;;0.95;0.35;;;;;;;3.88;100.00;97310.44;5035760;28;20078;-81
2023/01/08 05:36:16;;;;;;;1.45;0.40;;;;;;;3.89;100.00;97301.59;5069151;28;20055;-82
2023/01/08 05:38:42;;;;;;;2.58;0.35;;;;;;;3.90;100.00;97299.81;5050226;28;20032;-81
2023/01/08 05:41:09;;;;;;;1.15;0.45;;;;;;;3.90;100.00;97294.59;5051576;28;20032;-81
2023/01/08 05:43:36;;;;;;;1.83;0.40;;;;;;;3.88;100.00;97299.16;5035472;28;20041;-81
2023/01/08 05:46:02;;;;;;;1.35;0.28;;;;;;;3.87;100.00;97294.94;5052696;28;20038;-82
2023/01/08 05:48:30;;;;;;;2.88;0.30;;;;;;;3.87;100.00;97292.34;5067918;28;20036;-81
2023/01/08 05:50:56;;;;;;;2.85;1.00;;;;;;;3.86;100.00;97286.28;5051333;28;20059;-83
2023/01/08 05:53:22;;;;;;;3.10;0.30;;;;;;;3.87;100.00;97287.09;5051828;28;20484;-83
2023/01/08 05:55:47;;;;;;;3.92;0.50;;;;;;;3.88;100.00;97283.50;5051368;28;20097;-81
2023/01/08 05:58:17;;;;;;;3.83;0.60;;;;;;;3.86;100.00;97286.28;5048736;28;20032;-81
2023/01/08 06:00:44;;;;;;;0.65;0.30;;;;;;;3.87;100.00;97289.72;5073679;28;20036;-81
2023/01/08 06:03:10;;;;;;;3.03;0.40;;;;;;;3.89;100.00;97287.72;5055957;28;20038;-81
2023/01/08 06:05:36;;;;;;;1.50;0.20;;;;;;;3.87;100.00;97293.13;5072091;28;20060;-82
2023/01/08 06:08:02;;;;;;;1.48;0.20;;;;;;;3.85;100.00;97290.69;5038658;28;20079;-86
2023/01/08 06:10:28;;;;;;;2.70;0.13;;;;;;;3.85;100.00;97288.09;5070103;28;20396;-82
2023/01/08 06:12:54;;;;;;;2.35;0.20;;;;;;;3.82;100.00;97285.81;5088820;28;20076;-83
2023/01/08 06:15:20;;;;;;;0.60;0.13;;;;;;;3.84;100.00;97285.66;5071931;28;20040;-82
2023/01/08 06:17:46;;;;;;;2.35;0.20;;;;;;;3.83;100.00;97279.63;5067351;28;20378;-83
2023/01/08 06:20:11;;;;;;;3.13;0.30;;;;;;;3.84;100.00;97270.78;5060929;28;20047;-82
2023/01/08 06:22:37;;;;;;;2.33;0.20;;;;;;;3.86;100.00;97275.84;5070520;28;20133;-81
2023/01/08 06:25:04;;;;;;;2.78;0.30;;;;;;;3.88;100.00;97266.03;5047457;28;20488;-83
2023/01/08 06:27:30;;;;;;;3.15;0.50;;;;;;;3.90;100.00;97276.28;5052005;28;20032;-83
2023/01/08 06:29:55;;;;;;;2.38;0.20;;;;;;;3.90;100.00;97276.28;5064697;28;20101;-81
2023/01/08 06:32:21;;;;;;;3.95;0.40;;;;;;;3.93;100.00;97278.56;5087752;28;20036;-81
2023/01/08 06:34:47;;;;;;;1.75;0.38;;;;;;;3.94;100.00;97277.53;5055632;28;20135;-81
2023/01/08 06:37:13;;;;;;;4.22;0.75;;;;;;;3.95;100.00;97276.56;5053682;28;20098;-81
2023/01/08 06:39:39;;;;;;;3.13;0.40;;;;;;;3.97;100.00;97270.16;5072633;28;20381;-82
2023/01/08 06:42:05;;;;;;;3.03;0.50;;;;;;;4.01;100.00;97261.97;5069719;28;20115;-82
2023/01/08 06:44:31;;;;;;;1.80;0.35;;;;;;;4.03;100.00;97258.16;5069299;28;20098;-82
2023/01/08 06:46:57;;;;;;;1.65;0.25;;;;;;;4.04;100.00;97253.75;5054411;28;20028;-83
2023/01/08 06:49:23;;;;;;;4.38;0.45;;;;;;;3.99;100.00;97251.69;5069979;28;20119;-82
2023/01/08 06:51:49;;;;;;;3.63;0.22;;;;;;;3.92;100.00;97250.78;5068820;28;20032;-82
2023/01/08 06:54:15;;;;;;;1.45;0.20;;;;;;;3.94;100.00;97251.41;5056135;28;20036;-81
2023/01/08 06:56:40;;;;;;;2.42;0.30;;;;;;;3.93;100.00;97260.25;5053996;28;20071;-81
2023/01/08 06:59:06;;;;;;;1.77;0.28;;;;;;;3.90;100.00;97264.03;5052150;28;20024;-82
2023/01/08 07:01:32;;;;;;;3.13;0.35;;;;;;;3.88;100.00;97268.63;5083607;28;20029;-82
2023/01/08 07:03:58;;;;;;;1.20;0.30;;;;;;;3.83;100.00;97261.34;5072349;28;20039;-82
2023/01/08 07:06:24;;;;;;;1.35;0.30;;;;;;;3.82;100.00;97264.13;5071464;28;20026;-81
2023/01/08 07:08:49;;;;;;;2.95;0.30;;;;;;;3.80;100.00;97261.69;5046431;28;20115;-80
2023/01/08 07:11:15;;;;;;;2.45;0.50;;;;;;;3.77;100.00;97249.00;5049379;28;20092;-81
2023/01/08 07:13:41;;;;;;;2.45;0.30;;;;;;;3.75;100.00;97237.09;5056189;28;20044;-81
2023/01/08 07:16:13;;;;;;;3.58;0.35;;;;;;;3.76;100.00;97238.72;5082239;28;20039;-81
2023/01/08 07:18:39;;;;;;;2.08;0.20;;;;;;;3.68;100.00;97237.03;5045186;28;20048;-81
2023/01/08 07:21:07;;;;;;;1.75;0.20;;;;;;;3.64;100.00;97233.94;5069950;28;20024;-80
2023/01/08 07:23:34;;;;;;;1.13;0.20;;;;;;;3.58;100.00;97222.41;5049634;28;20272;-81
2023/01/08 07:26:01;;;;;;;1.58;0.32;;;;;;;3.55;100.00;97224.56;5053977;28;20029;-80
2023/01/08 07:28:28;;;;;;;1.27;0.22;;;;;;;3.50;100.00;97221.69;5071105;28;20054;-80
2023/01/08 07:30:54;;;;;;;2.92;0.20;;;;;;;3.44;100.00;97218.78;5036042;28;20048;-80
2023/01/08 07:33:19;;;;;;;2.72;0.20;;;;;;;3.42;100.00;97214.75;5071415;28;20032;-80
2023/01/08 07:35:52;;;;;;;3.20;0.38;;;;;;;3.40;100.00;97214.09;5050057;28;20037;-80
2023/01/08 07:38:19;;;;;;;1.85;0.43;;;;;;;3.40;100.00;97221.94;5055201;28;20435;-80
2023/01/08 07:40:44;;;;;;;2.25;0.30;;;;;;;3.37;100.00;97217.91;5058669;28;20032;-82
2023/01/08 07:43:13;;;;;;;3.20;0.50;;;;;;;3.36;100.00;97213.63;5054336;28;20067;-82
2023/01/08 07:45:40;;;;;;;2.55;0.30;;;;;;;3.33;100.00;97216.59;5034981;28;20028;-81
2023/01/08 07:48:06;;;;;;;2.40;0.28;;;;;;;3.31;100.00;97214.19;5071965;28;20032;-81
2023/01/08 07:50:32;;;;;;;2.70;0.50;;;;;;;3.34;100.00;97213.03;5070109;28;20045;-80
2023/01/08 07:52:59;;;;;;;4.88;0.40;;;;;;;3.35;100.00;97212.84;5046367;28;20454;-81
2023/01/08 07:55:26;;;;;;;5.35;0.73;;;;;;;3.33;100.00;97214.81;5034948;28;20033;-81
2023/01/08 07:57:52;;;;;;;2.10;0.30;;;;;;;3.32;100.00;97218.44;5071791;28;20060;-80
2023/01/08 08:00:19;;;;;;;2.00;0.30;;;;;;;3.32;100.00;97217.59;5048421;28;20091;-80
2023/01/08 08:02:45;;;;;;;7.20;0.75;;;;;;;3.30;100.00;97220.41;5062587;28;20120;-81
2023/01/08 08:05:12;;;;;;;2.25;0.40;;;;;;;3.29;100.00;97217.97;5085355;28;20032;-80
2023/01/08 08:07:38;;;;;;;1.83;0.85;;;;;;;3.27;100.00;97218.16;5070430;28;20039;-81
2023/01/08 08:10:04;;;;;;;4.80;0.50;;;;;;;3.26;100.00;97223.53;5082899;28;20040;-82
2023/01/08 08:12:31;;;;;;;4.28;0.38;;;;;;;3.23;100.00;97222.09;5069827;28;20722;-82
2023/01/08 08:14:56;;;;;;;3.17;0.50;;;;;;;3.23;100.00;97227.31;5069024;28;20033;-82
2023/01/08 08:17:22;;;;;;;5.45;0.52;;;;;;;3.20;100.00;97225.06;5052894;28;20370;-82
2023/01/08 08:19:48;;;;;;;5.15;0.43;;;;;;;3.17;100.00;97231.44;5062971;28;20024;-82
2023/01/08 08:22:14;;;;;;;4.82;0.60;;;;;;;3.18;100.00;97240.09;5053068;28;20032;-82
2023/01/08 08:24:40;;;;;;;6.05;0.77;;;;;;;3.20;100.00;97231.09;5082669;28;20028;-83
2023/01/08 08:27:06;;;;;;;5.60;1.48;;;;;;;3.21;100.00;97224.91;5052009;28;20130;-82
2023/01/08 08:29:32;;;;;;;5.53;0.73;;;;;;;3.22;100.00;97217.84;5045940;28;20102;-81
2023/01/08 08:31:58;;;;;;;4.00;0.82;;;;;;;3.21;100.00;97213.63;5053343;28;20450;-81
2023/01/08 08:34:24;;;;;;;5.18;0.40;;;;;;;3.19;100.00;97215.59;5068242;28;20036;-82
2023/01/08 08:36:49;;;;;;;4.13;0.70;;;;;;;3.20;100.00;97225.06;5071586;28;20392;-82
2023/01/08 08:39:17;;;;;;;5.50;0.65;;;;;;;3.21;100.00;97226.69;5085564;28;20047;-81
2023/01/08 08:41:42;;;;;;;2.75;0.68;;;;;;;3.21;100.00;97219.69;5071779;28;20538;-82
2023/01/08 08:44:08;;;;;;;1.88;0.52;;;;;;;3.21;100.00;97221.47;5069687;28;20036;-80
2023/01/08 08:46:34;;;;;;;9.05;0.70;;;;;;;3.17;100.00;97210.56;5049775;28;20029;-80
2023/01/08 08:49:00;;;;;;;7.63;0.80;;;;;;;3.17;100.00;97200.13;5067609;28;20025;-82
2023/01/08 08:51:26;;;;;;;4.30;0.68;;;;;;;3.14;100.00;97200.47;5068567;28;20037;-81
2023/01/08 08:53:52;;;;;;;4.13;0.63;;;;;;;3.12;100.00;97199.88;5070128;28;20550;-82
2023/01/08 08:56:18;;;;;;;4.78;0.70;;;;;;;3.12;100.00;97201.66;5069183;28;20060;-82
2023/01/08 08:58:46;;;;;;;4.20;0.80;;;;;;;3.06;100.00;97206.56;5066971;28;20024;-82
2023/01/08 09:01:12;;;;;;;3.40;0.70;;;;;;;3.03;100.00;97198.28;5007093;28;20044;-80
2023/01/08 09:03:38;;;;;;;2.20;0.73;;;;;;;3.01;100.00;97201.06;5049163;28;20366;-81
2023/01/08 09:06:04;;;;;;;6.43;0.80;;;;;;;2.99;100.00;97203.06;5062654;28;20071;-81
2023/01/08 09:08:30;;;;;;;4.68;0.70;;;;;;;2.96;100.00;97208.63;5046074;28;20036;-81
2023/01/08 09:10:55;;;;;;;5.05;0.55;;;;;;;2.93;100.00;97201.94;5050532;28;20052;-80
2023/01/08 09:13:21;;;;;;;4.00;0.63;;;;;;;2.94;100.00;97208.00;5056451;28;20090;-80
2023/01/08 09:15:47;;;;;;;3.70;0.85;;;;;;;2.93;100.00;97211.59;5051417;28;20400;-80
2023/01/08 09:18:13;;;;;;;8.38;1.27;;;;;;;2.96;100.00;97217.25;5067663;28;20035;-80
2023/01/08 09:20:39;;;;;;;7.00;1.02;;;;;;;2.96;100.00;97206.03;5067804;28;20908;-82
2023/01/08 09:23:05;;;;;;;5.60;0.75;;;;;;;2.92;100.00;97202.94;5053443;28;20033;-81
2023/01/08 09:25:31;;;;;;;9.30;5.15;;;;;;;2.90;100.00;97197.09;5050863;28;20677;-81
2023/01/08 09:28:03;;;;;;;20.70;9.25;;;;;;;2.94;100.00;97195.75;5033892;28;20040;-81
2023/01/08 09:30:29;;;;;;;32.60;20.30;;;;;;;2.97;100.00;97200.63;5066730;28;20036;-80
2023/01/08 09:33:04;;;;;;;37.45;22.75;;;;;;;3.01;100.00;97195.84;5067733;28;20089;-80
2023/01/08 09:35:32;;;;;;;13.88;8.05;;;;;;;3.01;100.00;97188.03;5082069;28;20024;-82
2023/01/08 09:38:01;;;;;;;7.15;3.90;;;;;;;3.03;100.00;97185.25;5064178;22;20407;-82
2023/01/08 09:40:36;;;;;;;8.35;2.92;;;;;;;3.02;100.00;97189.66;5033423;28;20037;-80
2023/01/08 09:43:04;;;;;;;9.77;2.45;;;;;;;3.01;100.00;97188.03;4997029;28;20087;-82
2023/01/08 09:45:37;;;;;;;13.43;4.78;;;;;;;3.02;100.00;97187.06;5028715;28;20037;-81
2023/01/08 09:48:12;;;;;;;9.27;2.47;;;;;;;3.04;100.00;97190.28;5004298;28;20048;-82
2023/01/08 09:50:39;;;;;;;4.47;2.22;;;;;;;3.08;100.00;97194.19;5041240;28;20025;-82
2023/01/08 09:53:11;;;;;;;4.18;1.10;;;;;;;3.15;100.00;97180.41;5027372;28;20048;-82
2023/01/08 09:55:38;;;;;;;6.63;0.93;;;;;;;3.17;100.00;97179.25;5024803;28;20037;-82
2023/01/08 09:58:39;;;;;;;10.05;0.95;;;;;;;3.24;100.00;97171.50;5016703;28;20472;-81
2023/01/08 10:01:20;;;;;;;5.97;1.02;;;;;;;3.28;100.00;97166.75;5011707;28;20552;-82
2023/01/08 10:04:12;;;;;;;7.18;2.40;;;;;;;3.37;100.00;97162.25;4997360;28;20074;-80
2023/01/08 10:06:40;;;;;;;9.40;2.45;;;;;;;3.40;100.00;97162.72;5012593;28;20116;-80
2023/01/08 10:09:15;;;;;;;8.68;3.63;;;;;;;3.47;100.00;97168.81;5019345;28;20107;-81
2023/01/08 10:11:44;;;;;;;13.63;5.97;;;;;;;3.56;100.00;97160.91;5013275;28;20159;-81
2023/01/08 10:14:48;;;;;;;8.45;3.78;;;;;;;3.67;100.00;97163.06;5006033;28;20470;-82
2023/01/08 10:17:45;;;;;;;14.88;7.80;;;;;;;3.72;100.00;97159.91;4931362;28;20065;-81
2023/01/08 10:20:12;;;;;;;25.60;14.63;;;;;;;3.79;100.00;97165.22;4977218;28;20048;-80
2023/01/08 10:22:39;;;;;;;10.45;3.25;;;;;;;3.85;100.00;97151.44;5027928;28;20125;-80
2023/01/08 10:28:20;;;;;;;9.18;1.30;;;;;;;3.99;100.00;97155.00;5025948;28;20056;-81
2023/01/08 10:30:46;;;;;;;3.70;0.60;;;;;;;4.05;100.00;97148.22;5034392;28;20064;-81
2023/01/08 10:33:48;;;;;;;7.07;1.42;;;;;;;4.14;100.00;97160.19;5030208;28;20066;-81
2023/01/08 10:36:23;;;;;;;14.10;1.02;;;;;;;4.14;100.00;97151.53;5027262;28;20121;-81
2023/01/08 10:39:01;;;;;;;6.32;1.05;;;;;;;4.13;100.00;97158.56;5016936;28;20046;-80
2023/01/08 10:41:41;;;;;;;7.13;1.20;;;;;;;4.16;100.00;97149.53;5020567;28;20489;-80
2023/01/08 10:44:15;;;;;;;10.15;2.25;;;;;;;4.16;100.00;97136.47;5035358;28;20039;-80
2023/01/08 10:46:49;;;;;;;9.40;1.25;;;;;;;4.19;100.00;97138.72;5026433;28;20025;-80
2023/01/08 10:49:30;;;;;;;4.03;0.73;;;;;;;4.18;100.00;97142.31;5009542;28;20026;-81
2023/01/08 10:51:59;;;;;;;3.38;0.85;;;;;;;4.17;100.00;97141.50;5015098;28;20042;-80
2023/01/08 10:54:37;;;;;;;8.00;2.00;;;;;;;4.24;100.00;97136.34;5046606;28;20140;-81
2023/01/08 10:57:36;;;;;;;9.35;1.67;;;;;;;4.24;100.00;97135.56;4999882;28;20112;-80
2023/01/08 11:00:01;;;;;;;5.10;0.70;;;;;;;4.22;100.00;97133.94;4966046;28;20037;-81
2023/01/08 11:02:36;;;;;;;7.93;1.30;;;;;;;4.28;100.00;97135.00;5048668;28;20048;-80
2023/01/08 11:05:06;;;;;;;7.07;0.90;;;;;;;4.26;100.00;97125.72;4994846;28;20029;-80
2023/01/08 11:07:35;;;;;;;7.35;2.00;;;;;;;4.27;100.00;97125.53;5016700;28;20492;-80
2023/01/08 11:10:03;;;;;;;11.57;1.92;;;;;;;4.31;100.00;97116.34;5030716;28;20041;-80
2023/01/08 11:12:37;;;;;;;4.57;1.13;;;;;;;4.39;100.00;97138.94;5031261;28;20033;-81
2023/01/08 11:15:07;;;;;;;6.00;1.70;;;;;;;4.40;100.00;97126.66;5049313;28;20041;-80
2023/01/08 11:17:36;;;;;;;9.88;1.67;;;;;;;4.40;100.00;97129.25;5012521;28;20392;-80
2023/01/08 11:20:27;;;;;;;9.20;0.82;;;;;;;4.44;100.00;97133.13;4999618;28;20055;-80
2023/01/08 11:23:05;;;;;;;8.18;1.13;;;;;;;4.45;100.00;97138.19;5029138;28;20033;-81
2023/01/08 11:25:32;;;;;;;15.82;2.17;;;;;;;4.45;100.00;97127.72;5014498;28;20431;-81
2023/01/08 11:28:01;;;;;;;9.70;1.85;;;;;;;4.45;100.00;97119.06;4991717;28;20033;-80
2023/01/08 11:30:31;;;;;;;10.93;1.60;;;;;;;4.43;100.00;97119.25;4994523;28;20044;-80
2023/01/08 11:33:09;;;;;;;11.30;1.23;;;;;;;4.45;100.00;97113.81;4995154;28;20036;-81
2023/01/08 11:35:47;;;;;;;7.70;1.02;;;;;;;4.48;100.00;97116.06;5025508;28;20139;-81
2023/01/08 11:38:13;;;;;;;9.57;1.13;;;;;;;4.52;100.00;97119.13;5030544;28;20049;-80
2023/01/08 11:40:51;;;;;;;10.55;1.00;;;;;;;4.55;100.00;97113.50;5027672;28;20627;-80